KJEF

Jefferson City Memorial Airport

Jefferson City, Missouri, USA
METAR KJEF 212153Z 28012KT 9SM BKN055 OVC075 22/16 A2972 RMK AO2 RAE00 SLP053 P0000 T02220156
Observed Flight Rules
Jun-21 @ 21:53 UTC (11 minutes ago) Visual Flight Rules
Wind Visibility Clouds
280° at 12 knots 9 miles
  • Broken at 5,500' AGL
  • Overcast at 7,500' AGL
Temperatures Readings Precipitation
Current 22°C / 72°F
Dewpoint 16°C / 61°F
Humidity 69%
Altimeter 29.72" Hg
Pressure 1005.3 hPa
Elevation 168
Current Rain 0.005
METAR KJEF 212153Z 28012KT 9SM BKN055 OVC075 22/16 A2972 RMK AO2 RAE00 SLP053 P0000 T02220156
Observed Flight Rules
Jun-21 @ 21:53 UTC
(11 minutes ago)
VFR
Wind Visibility
280° at 12 knots 9 miles
Clouds
  • Broken at 5,500' AGL
  • Overcast at 7,500' AGL
Temperature Dewpoint
22°C / 72°F 16°C / 61°F
Humidity Altimeter Pressure
69% 29.72" Hg 1005.3 hPa
Current Rain
0.005